KPOF/POF METAR and TAF weather

Enter ICAO airport designator
Station Type Date Time Source
KPOF METAR 2021/08/04 17:53 UTC NOAA

KPOF 041753Z AUTO 01009KT 10SM CLR 27/16 A3011 RMK AO2 SLP193 T02720156 10272 20167 58001


Station Type Date Time Source
KPOF Decoded METAR 2021/08/04 17:53 UTC NOAA

POPLAR BLUFF MUN AIRPORT, MO, United States (KPOF) 36-46N 090-19W 100M
Aug 04, 2021 - 01:53 PM EDT / 2021.08.04 1753 UTC
Wind: from the N (010 degrees) at 10 MPH (9 KT):0
Visibility: 10 mile(s):0
Sky conditions: clear
Temperature: 81.0 F (27.2 C)
Dew Point: 60.1 F (15.6 C)
Relative Humidity: 49%
Pressure (altimeter): 30.11 in. Hg (1019 hPa)
Pressure tendency: 0.00 inches (0.1 hPa) lower than three hours ago
ob: KPOF 041753Z AUTO 01009KT 10SM CLR 27/16 A3011 RMK AO2 SLP193 T02720156 10272 20167 58001
cycle: 18

Station Type Date Time Source
KPOF TAF UTC NOAA

Error!

Example: see airport list